sensor_id;sensor_type;location;lat;lon;timestamp;P1;durP1;ratioP1;P2;durP2;ratioP2
12072;SDS011;6098;49.004;8.372;2022-07-10T00:11:13;4.82;;;4.43;;
12072;SDS011;6098;49.004;8.372;2022-07-10T00:26:05;5.66;;;4.90;;
12072;SDS011;6098;49.004;8.372;2022-07-10T00:40:57;5.32;;;4.86;;
12072;SDS011;6098;49.004;8.372;2022-07-10T00:55:49;6.21;;;4.83;;
12072;SDS011;6098;49.004;8.372;2022-07-10T01:10:39;4.96;;;4.20;;
12072;SDS011;6098;49.004;8.372;2022-07-10T01:25:30;5.08;;;3.40;;
12072;SDS011;6098;49.004;8.372;2022-07-10T01:40:21;4.12;;;3.00;;
12072;SDS011;6098;49.004;8.372;2022-07-10T01:55:11;5.06;;;2.88;;
12072;SDS011;6098;49.004;8.372;2022-07-10T02:10:02;3.84;;;2.50;;
12072;SDS011;6098;49.004;8.372;2022-07-10T02:24:53;5.23;;;2.60;;
12072;SDS011;6098;49.004;8.372;2022-07-10T02:39:43;2.77;;;2.44;;
12072;SDS011;6098;49.004;8.372;2022-07-10T02:54:37;3.34;;;2.10;;
12072;SDS011;6098;49.004;8.372;2022-07-10T03:09:27;4.43;;;2.06;;
12072;SDS011;6098;49.004;8.372;2022-07-10T03:24:19;6.64;;;2.43;;
12072;SDS011;6098;49.004;8.372;2022-07-10T03:39:09;5.23;;;2.31;;
12072;SDS011;6098;49.004;8.372;2022-07-10T03:54:01;3.86;;;2.20;;
12072;SDS011;6098;49.004;8.372;2022-07-10T04:08:52;2.52;;;2.02;;
12072;SDS011;6098;49.004;8.372;2022-07-10T04:23:55;3.38;;;2.20;;
12072;SDS011;6098;49.004;8.372;2022-07-10T04:38:47;3.49;;;1.98;;
12072;SDS011;6098;49.004;8.372;2022-07-10T04:53:38;3.82;;;2.30;;
12072;SDS011;6098;49.004;8.372;2022-07-10T05:08:31;2.22;;;2.00;;
12072;SDS011;6098;49.004;8.372;2022-07-10T05:23:22;6.16;;;2.19;;
12072;SDS011;6098;49.004;8.372;2022-07-10T05:38:13;3.83;;;2.10;;
12072;SDS011;6098;49.004;8.372;2022-07-10T05:53:05;6.18;;;1.90;;
12072;SDS011;6098;49.004;8.372;2022-07-10T06:07:57;2.11;;;1.84;;
12072;SDS011;6098;49.004;8.372;2022-07-10T06:22:48;10.21;;;2.51;;
12072;SDS011;6098;49.004;8.372;2022-07-10T06:37:40;4.39;;;1.90;;
12072;SDS011;6098;49.004;8.372;2022-07-10T06:52:32;4.14;;;1.80;;
12072;SDS011;6098;49.004;8.372;2022-07-10T07:07:23;6.56;;;2.21;;
12072;SDS011;6098;49.004;8.372;2022-07-10T07:22:16;5.96;;;2.00;;
12072;SDS011;6098;49.004;8.372;2022-07-10T07:37:38;4.14;;;1.80;;
12072;SDS011;6098;49.004;8.372;2022-07-10T07:52:33;1.98;;;1.61;;
12072;SDS011;6098;49.004;8.372;2022-07-10T08:07:34;1.98;;;1.52;;
12072;SDS011;6098;49.004;8.372;2022-07-10T08:22:36;2.44;;;1.54;;
12072;SDS011;6098;49.004;8.372;2022-07-10T08:37:41;3.64;;;1.49;;
12072;SDS011;6098;49.004;8.372;2022-07-10T08:52:33;3.22;;;1.49;;
12072;SDS011;6098;49.004;8.372;2022-07-10T09:07:25;5.01;;;1.52;;
12072;SDS011;6098;49.004;8.372;2022-07-10T09:22:18;1.67;;;1.08;;
12072;SDS011;6098;49.004;8.372;2022-07-10T09:37:23;2.61;;;0.90;;
12072;SDS011;6098;49.004;8.372;2022-07-10T09:52:23;2.60;;;0.89;;
12072;SDS011;6098;49.004;8.372;2022-07-10T10:07:18;1.36;;;0.83;;
12072;SDS011;6098;49.004;8.372;2022-07-10T10:22:11;2.44;;;0.81;;
12072;SDS011;6098;49.004;8.372;2022-07-10T10:37:01;2.41;;;0.86;;
12072;SDS011;6098;49.004;8.372;2022-07-10T10:51:56;2.61;;;0.90;;
12072;SDS011;6098;49.004;8.372;2022-07-10T11:06:51;2.45;;;0.85;;
12072;SDS011;6098;49.004;8.372;2022-07-10T11:21:45;3.47;;;1.55;;
12072;SDS011;6098;49.004;8.372;2022-07-10T11:36:34;2.33;;;1.00;;
12072;SDS011;6098;49.004;8.372;2022-07-10T11:51:30;2.21;;;0.93;;
12072;SDS011;6098;49.004;8.372;2022-07-10T12:06:25;2.03;;;0.86;;
12072;SDS011;6098;49.004;8.372;2022-07-10T12:21:17;3.33;;;0.90;;
12072;SDS011;6098;49.004;8.372;2022-07-10T12:36:09;3.22;;;0.91;;
12072;SDS011;6098;49.004;8.372;2022-07-10T13:06:25;1.46;;;0.90;;
12072;SDS011;6098;49.004;8.372;2022-07-10T13:21:20;1.77;;;0.80;;
12072;SDS011;6098;49.004;8.372;2022-07-10T13:36:12;2.96;;;1.21;;
12072;SDS011;6098;49.004;8.372;2022-07-10T13:51:05;2.85;;;1.10;;
12072;SDS011;6098;49.004;8.372;2022-07-10T14:05:57;2.66;;;1.40;;
12072;SDS011;6098;49.004;8.372;2022-07-10T14:20:50;2.58;;;1.51;;
12072;SDS011;6098;49.004;8.372;2022-07-10T14:35:59;3.09;;;1.62;;
12072;SDS011;6098;49.004;8.372;2022-07-10T14:50:59;2.05;;;1.40;;
12072;SDS011;6098;49.004;8.372;2022-07-10T15:05:50;2.79;;;1.60;;
12072;SDS011;6098;49.004;8.372;2022-07-10T15:20:46;3.31;;;1.58;;
12072;SDS011;6098;49.004;8.372;2022-07-10T15:35:38;2.04;;;1.70;;
12072;SDS011;6098;49.004;8.372;2022-07-10T15:50:29;2.34;;;1.45;;
12072;SDS011;6098;49.004;8.372;2022-07-10T16:05:21;3.14;;;1.50;;
12072;SDS011;6098;49.004;8.372;2022-07-10T16:20:13;3.95;;;1.55;;
12072;SDS011;6098;49.004;8.372;2022-07-10T16:35:10;2.01;;;1.29;;
12072;SDS011;6098;49.004;8.372;2022-07-10T16:50:01;4.20;;;1.48;;
12072;SDS011;6098;49.004;8.372;2022-07-10T17:04:53;1.80;;;1.29;;
12072;SDS011;6098;49.004;8.372;2022-07-10T17:19:43;2.25;;;1.05;;
12072;SDS011;6098;49.004;8.372;2022-07-10T17:34:35;1.15;;;1.00;;
12072;SDS011;6098;49.004;8.372;2022-07-10T17:49:42;2.22;;;1.19;;
12072;SDS011;6098;49.004;8.372;2022-07-10T18:04:34;2.87;;;1.59;;
12072;SDS011;6098;49.004;8.372;2022-07-10T18:19:25;3.67;;;1.34;;
12072;SDS011;6098;49.004;8.372;2022-07-10T18:34:17;0.94;;;0.81;;
12072;SDS011;6098;49.004;8.372;2022-07-10T18:49:25;1.65;;;0.90;;
12072;SDS011;6098;49.004;8.372;2022-07-10T19:04:16;2.17;;;1.02;;
12072;SDS011;6098;49.004;8.372;2022-07-10T19:19:07;1.86;;;0.99;;
12072;SDS011;6098;49.004;8.372;2022-07-10T19:34:00;1.55;;;1.10;;
12072;SDS011;6098;49.004;8.372;2022-07-10T19:48:50;2.39;;;1.30;;
12072;SDS011;6098;49.004;8.372;2022-07-10T20:03:41;5.54;;;1.81;;
12072;SDS011;6098;49.004;8.372;2022-07-10T20:18:32;1.50;;;1.40;;
12072;SDS011;6098;49.004;8.372;2022-07-10T20:33:22;1.95;;;1.77;;
12072;SDS011;6098;49.004;8.372;2022-07-10T20:48:14;2.64;;;2.30;;
12072;SDS011;6098;49.004;8.372;2022-07-10T21:03:07;2.97;;;2.23;;
12072;SDS011;6098;49.004;8.372;2022-07-10T21:17:59;4.49;;;2.39;;
12072;SDS011;6098;49.004;8.372;2022-07-10T21:32:51;2.54;;;2.10;;
12072;SDS011;6098;49.004;8.372;2022-07-10T21:47:42;3.15;;;2.36;;
12072;SDS011;6098;49.004;8.372;2022-07-10T22:02:34;2.75;;;2.50;;
12072;SDS011;6098;49.004;8.372;2022-07-10T22:17:26;3.17;;;2.80;;
12072;SDS011;6098;49.004;8.372;2022-07-10T22:32:17;4.41;;;2.80;;
12072;SDS011;6098;49.004;8.372;2022-07-10T22:47:08;2.59;;;2.36;;
12072;SDS011;6098;49.004;8.372;2022-07-10T23:01:58;3.18;;;2.82;;
12072;SDS011;6098;49.004;8.372;2022-07-10T23:16:49;4.15;;;2.94;;
12072;SDS011;6098;49.004;8.372;2022-07-10T23:31:41;3.30;;;3.00;;
12072;SDS011;6098;49.004;8.372;2022-07-10T23:46:34;3.46;;;3.16;;
